sensor_id;sensor_type;location;lat;lon;timestamp;P1;durP1;ratioP1;P2;durP2;ratioP2
58896;SDS011;44677;52.378;10.400;2023-09-08T00:00:51;5.50;;;4.80;;
58896;SDS011;44677;52.378;10.400;2023-09-08T00:03:16;8.40;;;5.40;;
58896;SDS011;44677;52.378;10.400;2023-09-08T00:05:42;7.30;;;5.30;;
58896;SDS011;44677;52.378;10.400;2023-09-08T00:08:07;4.90;;;4.50;;
58896;SDS011;44677;52.378;10.400;2023-09-08T00:10:32;7.90;;;5.00;;
58896;SDS011;44677;52.378;10.400;2023-09-08T00:12:58;5.40;;;4.70;;
58896;SDS011;44677;52.378;10.400;2023-09-08T00:15:23;8.20;;;4.40;;
58896;SDS011;44677;52.378;10.400;2023-09-08T00:17:49;5.20;;;4.60;;
58896;SDS011;44677;52.378;10.400;2023-09-08T00:20:14;5.20;;;4.70;;
58896;SDS011;44677;52.378;10.400;2023-09-08T00:22:40;5.40;;;4.90;;
58896;SDS011;44677;52.378;10.400;2023-09-08T00:25:06;8.00;;;4.90;;
58896;SDS011;44677;52.378;10.400;2023-09-08T00:27:31;6.10;;;5.40;;
58896;SDS011;44677;52.378;10.400;2023-09-08T00:29:57;5.90;;;5.30;;
58896;SDS011;44677;52.378;10.400;2023-09-08T00:32:23;8.00;;;5.50;;
58896;SDS011;44677;52.378;10.400;2023-09-08T00:34:48;5.90;;;4.80;;
58896;SDS011;44677;52.378;10.400;2023-09-08T00:37:14;7.10;;;5.70;;
58896;SDS011;44677;52.378;10.400;2023-09-08T00:39:39;5.50;;;4.70;;
58896;SDS011;44677;52.378;10.400;2023-09-08T00:42:05;5.80;;;5.20;;
58896;SDS011;44677;52.378;10.400;2023-09-08T00:44:32;6.10;;;5.00;;
58896;SDS011;44677;52.378;10.400;2023-09-08T00:46:57;6.70;;;5.60;;
58896;SDS011;44677;52.378;10.400;2023-09-08T00:49:23;7.40;;;5.10;;
58896;SDS011;44677;52.378;10.400;2023-09-08T00:51:48;9.00;;;6.20;;
58896;SDS011;44677;52.378;10.400;2023-09-08T00:54:14;6.70;;;5.00;;
58896;SDS011;44677;52.378;10.400;2023-09-08T00:56:40;8.20;;;4.90;;
58896;SDS011;44677;52.378;10.400;2023-09-08T00:59:05;5.90;;;5.00;;
58896;SDS011;44677;52.378;10.400;2023-09-08T01:01:31;7.70;;;5.20;;
58896;SDS011;44677;52.378;10.400;2023-09-08T01:03:56;8.60;;;5.20;;
58896;SDS011;44677;52.378;10.400;2023-09-08T01:06:22;7.30;;;5.40;;
58896;SDS011;44677;52.378;10.400;2023-09-08T01:08:48;6.10;;;5.10;;
58896;SDS011;44677;52.378;10.400;2023-09-08T01:11:13;6.10;;;4.80;;
58896;SDS011;44677;52.378;10.400;2023-09-08T01:13:39;5.90;;;5.00;;
58896;SDS011;44677;52.378;10.400;2023-09-08T01:16:04;7.10;;;5.40;;
58896;SDS011;44677;52.378;10.400;2023-09-08T01:18:30;6.00;;;4.90;;
58896;SDS011;44677;52.378;10.400;2023-09-08T01:21:03;6.00;;;5.40;;
58896;SDS011;44677;52.378;10.400;2023-09-08T01:26:29;6.60;;;5.30;;
58896;SDS011;44677;52.378;10.400;2023-09-08T01:28:56;7.80;;;5.30;;
58896;SDS011;44677;52.378;10.400;2023-09-08T01:31:22;6.60;;;5.30;;
58896;SDS011;44677;52.378;10.400;2023-09-08T01:33:47;5.50;;;4.70;;
58896;SDS011;44677;52.378;10.400;2023-09-08T01:36:13;5.60;;;5.10;;
58896;SDS011;44677;52.378;10.400;2023-09-08T01:38:41;6.00;;;5.30;;
58896;SDS011;44677;52.378;10.400;2023-09-08T01:41:07;6.00;;;5.00;;
58896;SDS011;44677;52.378;10.400;2023-09-08T01:43:32;5.50;;;4.90;;
58896;SDS011;44677;52.378;10.400;2023-09-08T01:45:58;7.80;;;5.20;;
58896;SDS011;44677;52.378;10.400;2023-09-08T01:48:23;8.00;;;5.30;;
58896;SDS011;44677;52.378;10.400;2023-09-08T01:50:49;6.90;;;5.50;;
58896;SDS011;44677;52.378;10.400;2023-09-08T01:53:14;5.30;;;4.80;;
58896;SDS011;44677;52.378;10.400;2023-09-08T01:55:40;7.70;;;5.50;;
58896;SDS011;44677;52.378;10.400;2023-09-08T01:58:05;8.00;;;5.30;;
58896;SDS011;44677;52.378;10.400;2023-09-08T02:00:31;6.90;;;5.30;;
58896;SDS011;44677;52.378;10.400;2023-09-08T02:02:56;6.80;;;5.40;;
58896;SDS011;44677;52.378;10.400;2023-09-08T02:05:21;5.80;;;5.30;;
58896;SDS011;44677;52.378;10.400;2023-09-08T02:07:47;10.50;;;5.10;;
58896;SDS011;44677;52.378;10.400;2023-09-08T02:10:14;7.30;;;5.20;;
58896;SDS011;44677;52.378;10.400;2023-09-08T02:12:39;6.00;;;5.10;;
58896;SDS011;44677;52.378;10.400;2023-09-08T02:15:05;5.90;;;5.20;;
58896;SDS011;44677;52.378;10.400;2023-09-08T02:17:32;6.70;;;5.10;;
58896;SDS011;44677;52.378;10.400;2023-09-08T02:19:58;7.20;;;5.80;;
58896;SDS011;44677;52.378;10.400;2023-09-08T02:22:23;7.70;;;5.40;;
58896;SDS011;44677;52.378;10.400;2023-09-08T02:24:50;5.80;;;5.20;;
58896;SDS011;44677;52.378;10.400;2023-09-08T02:27:17;6.00;;;5.20;;
58896;SDS011;44677;52.378;10.400;2023-09-08T02:29:42;6.90;;;5.60;;
58896;SDS011;44677;52.378;10.400;2023-09-08T02:32:08;7.40;;;5.90;;
58896;SDS011;44677;52.378;10.400;2023-09-08T02:34:34;6.40;;;5.60;;
58896;SDS011;44677;52.378;10.400;2023-09-08T02:37:02;7.10;;;5.50;;
58896;SDS011;44677;52.378;10.400;2023-09-08T02:39:28;8.10;;;5.80;;
58896;SDS011;44677;52.378;10.400;2023-09-08T02:41:53;6.50;;;5.50;;
58896;SDS011;44677;52.378;10.400;2023-09-08T02:44:20;7.80;;;6.40;;
58896;SDS011;44677;52.378;10.400;2023-09-08T02:46:47;7.30;;;5.60;;
58896;SDS011;44677;52.378;10.400;2023-09-08T02:49:13;10.10;;;5.70;;
58896;SDS011;44677;52.378;10.400;2023-09-08T02:51:38;6.70;;;5.60;;
58896;SDS011;44677;52.378;10.400;2023-09-08T02:54:04;6.70;;;5.80;;
58896;SDS011;44677;52.378;10.400;2023-09-08T02:56:30;7.20;;;5.60;;
58896;SDS011;44677;52.378;10.400;2023-09-08T02:58:55;6.20;;;5.60;;
58896;SDS011;44677;52.378;10.400;2023-09-08T03:01:20;7.70;;;6.00;;
58896;SDS011;44677;52.378;10.400;2023-09-08T03:03:46;7.60;;;5.70;;
58896;SDS011;44677;52.378;10.400;2023-09-08T03:06:13;7.70;;;6.00;;
58896;SDS011;44677;52.378;10.400;2023-09-08T03:08:40;6.20;;;5.60;;
58896;SDS011;44677;52.378;10.400;2023-09-08T03:11:05;7.10;;;5.30;;
58896;SDS011;44677;52.378;10.400;2023-09-08T03:13:31;6.20;;;5.50;;
58896;SDS011;44677;52.378;10.400;2023-09-08T03:16:02;6.40;;;5.80;;
58896;SDS011;44677;52.378;10.400;2023-09-08T03:18:29;7.30;;;5.70;;
58896;SDS011;44677;52.378;10.400;2023-09-08T03:20:54;6.10;;;5.10;;
58896;SDS011;44677;52.378;10.400;2023-09-08T03:23:20;6.40;;;5.40;;
58896;SDS011;44677;52.378;10.400;2023-09-08T03:25:46;7.50;;;5.60;;
58896;SDS011;44677;52.378;10.400;2023-09-08T03:28:14;6.30;;;5.40;;
58896;SDS011;44677;52.378;10.400;2023-09-08T03:30:40;6.50;;;5.70;;
58896;SDS011;44677;52.378;10.400;2023-09-08T03:33:05;7.10;;;5.40;;
58896;SDS011;44677;52.378;10.400;2023-09-08T03:35:31;6.40;;;5.60;;
58896;SDS011;44677;52.378;10.400;2023-09-08T03:37:57;7.90;;;5.60;;
58896;SDS011;44677;52.378;10.400;2023-09-08T03:40:23;7.20;;;6.00;;
58896;SDS011;44677;52.378;10.400;2023-09-08T03:42:49;6.60;;;6.00;;
58896;SDS011;44677;52.378;10.400;2023-09-08T03:45:15;8.40;;;6.10;;
58896;SDS011;44677;52.378;10.400;2023-09-08T03:47:41;8.50;;;5.90;;
58896;SDS011;44677;52.378;10.400;2023-09-08T03:50:07;7.10;;;6.20;;
58896;SDS011;44677;52.378;10.400;2023-09-08T03:52:32;7.40;;;6.60;;
58896;SDS011;44677;52.378;10.400;2023-09-08T03:54:58;8.20;;;6.60;;
58896;SDS011;44677;52.378;10.400;2023-09-08T03:57:23;6.90;;;6.20;;
58896;SDS011;44677;52.378;10.400;2023-09-08T03:59:49;8.60;;;6.40;;
58896;SDS011;44677;52.378;10.400;2023-09-08T04:02:14;7.30;;;6.10;;
58896;SDS011;44677;52.378;10.400;2023-09-08T04:04:40;9.10;;;6.40;;
58896;SDS011;44677;52.378;10.400;2023-09-08T04:09:35;7.60;;;6.40;;
58896;SDS011;44677;52.378;10.400;2023-09-08T04:12:01;8.20;;;6.10;;
58896;SDS011;44677;52.378;10.400;2023-09-08T04:14:28;7.10;;;6.10;;
58896;SDS011;44677;52.378;10.400;2023-09-08T04:16:55;7.70;;;5.90;;
58896;SDS011;44677;52.378;10.400;2023-09-08T04:19:21;6.90;;;5.70;;
58896;SDS011;44677;52.378;10.400;2023-09-08T04:21:46;8.30;;;6.50;;
58896;SDS011;44677;52.378;10.400;2023-09-08T04:24:12;7.10;;;6.00;;
58896;SDS011;44677;52.378;10.400;2023-09-08T04:26:38;6.80;;;5.70;;
58896;SDS011;44677;52.378;10.400;2023-09-08T04:29:03;8.40;;;6.40;;
58896;SDS011;44677;52.378;10.400;2023-09-08T04:31:29;7.00;;;6.30;;
58896;SDS011;44677;52.378;10.400;2023-09-08T04:33:54;8.70;;;5.90;;
58896;SDS011;44677;52.378;10.400;2023-09-08T04:36:20;7.10;;;5.80;;
58896;SDS011;44677;52.378;10.400;2023-09-08T04:38:45;8.70;;;6.20;;
58896;SDS011;44677;52.378;10.400;2023-09-08T04:41:11;6.60;;;5.60;;
58896;SDS011;44677;52.378;10.400;2023-09-08T04:43:37;8.70;;;6.50;;
58896;SDS011;44677;52.378;10.400;2023-09-08T04:46:02;6.50;;;5.70;;
58896;SDS011;44677;52.378;10.400;2023-09-08T04:50:54;10.00;;;6.10;;
58896;SDS011;44677;52.378;10.400;2023-09-08T04:53:21;9.50;;;6.10;;
58896;SDS011;44677;52.378;10.400;2023-09-08T04:55:47;7.60;;;6.40;;
58896;SDS011;44677;52.378;10.400;2023-09-08T04:58:12;6.40;;;5.80;;
58896;SDS011;44677;52.378;10.400;2023-09-08T05:00:38;10.80;;;6.30;;
58896;SDS011;44677;52.378;10.400;2023-09-08T05:03:05;8.00;;;6.30;;
58896;SDS011;44677;52.378;10.400;2023-09-08T05:05:32;13.50;;;6.60;;
58896;SDS011;44677;52.378;10.400;2023-09-08T05:07:57;8.60;;;6.30;;
58896;SDS011;44677;52.378;10.400;2023-09-08T05:10:23;7.80;;;7.00;;
58896;SDS011;44677;52.378;10.400;2023-09-08T05:12:49;8.40;;;6.30;;
58896;SDS011;44677;52.378;10.400;2023-09-08T05:15:15;8.50;;;6.70;;
58896;SDS011;44677;52.378;10.400;2023-09-08T05:17:45;9.30;;;6.60;;
58896;SDS011;44677;52.378;10.400;2023-09-08T05:20:11;8.00;;;6.70;;
58896;SDS011;44677;52.378;10.400;2023-09-08T05:22:36;8.40;;;6.40;;
58896;SDS011;44677;52.378;10.400;2023-09-08T05:25:02;10.00;;;7.00;;
58896;SDS011;44677;52.378;10.400;2023-09-08T05:27:28;8.60;;;6.80;;
58896;SDS011;44677;52.378;10.400;2023-09-08T05:29:54;9.20;;;6.70;;
58896;SDS011;44677;52.378;10.400;2023-09-08T05:32:19;8.20;;;6.80;;
58896;SDS011;44677;52.378;10.400;2023-09-08T05:34:45;11.50;;;7.10;;
58896;SDS011;44677;52.378;10.400;2023-09-08T05:37:11;10.30;;;7.60;;
58896;SDS011;44677;52.378;10.400;2023-09-08T05:39:37;8.20;;;6.80;;
58896;SDS011;44677;52.378;10.400;2023-09-08T05:42:03;7.40;;;6.50;;
58896;SDS011;44677;52.378;10.400;2023-09-08T05:44:29;8.20;;;6.70;;
58896;SDS011;44677;52.378;10.400;2023-09-08T05:46:54;9.30;;;7.10;;
58896;SDS011;44677;52.378;10.400;2023-09-08T05:49:21;6.90;;;6.10;;
58896;SDS011;44677;52.378;10.400;2023-09-08T05:51:47;7.90;;;6.20;;
58896;SDS011;44677;52.378;10.400;2023-09-08T05:54:12;7.30;;;6.20;;
58896;SDS011;44677;52.378;10.400;2023-09-08T05:56:38;8.40;;;6.10;;
58896;SDS011;44677;52.378;10.400;2023-09-08T05:59:04;8.60;;;6.40;;
58896;SDS011;44677;52.378;10.400;2023-09-08T06:01:30;8.70;;;6.90;;
58896;SDS011;44677;52.378;10.400;2023-09-08T06:03:56;7.30;;;6.00;;
58896;SDS011;44677;52.378;10.400;2023-09-08T06:06:23;7.10;;;6.50;;
58896;SDS011;44677;52.378;10.400;2023-09-08T06:08:51;7.90;;;6.80;;
58896;SDS011;44677;52.378;10.400;2023-09-08T06:11:16;7.00;;;6.30;;
58896;SDS011;44677;52.378;10.400;2023-09-08T06:13:45;8.50;;;6.70;;
58896;SDS011;44677;52.378;10.400;2023-09-08T06:16:11;10.00;;;7.50;;
58896;SDS011;44677;52.378;10.400;2023-09-08T06:18:36;10.00;;;6.90;;
58896;SDS011;44677;52.378;10.400;2023-09-08T06:21:06;8.70;;;7.30;;
58896;SDS011;44677;52.378;10.400;2023-09-08T06:23:33;8.20;;;7.10;;
58896;SDS011;44677;52.378;10.400;2023-09-08T06:25:59;11.90;;;7.10;;
58896;SDS011;44677;52.378;10.400;2023-09-08T06:28:26;9.10;;;6.90;;
58896;SDS011;44677;52.378;10.400;2023-09-08T06:30:52;10.40;;;7.50;;
58896;SDS011;44677;52.378;10.400;2023-09-08T06:33:18;9.60;;;7.60;;
58896;SDS011;44677;52.378;10.400;2023-09-08T06:35:45;9.60;;;7.80;;
58896;SDS011;44677;52.378;10.400;2023-09-08T06:38:11;7.50;;;6.70;;
58896;SDS011;44677;52.378;10.400;2023-09-08T06:40:37;12.30;;;7.90;;
58896;SDS011;44677;52.378;10.400;2023-09-08T06:43:03;9.50;;;7.70;;
58896;SDS011;44677;52.378;10.400;2023-09-08T06:45:37;11.80;;;8.00;;
58896;SDS011;44677;52.378;10.400;2023-09-08T06:48:05;12.80;;;7.90;;
58896;SDS011;44677;52.378;10.400;2023-09-08T06:50:31;12.60;;;7.60;;
58896;SDS011;44677;52.378;10.400;2023-09-08T06:52:56;14.00;;;7.60;;
58896;SDS011;44677;52.378;10.400;2023-09-08T06:55:22;11.20;;;8.20;;
58896;SDS011;44677;52.378;10.400;2023-09-08T06:57:55;18.20;;;8.10;;
58896;SDS011;44677;52.378;10.400;2023-09-08T07:00:21;8.50;;;7.50;;
58896;SDS011;44677;52.378;10.400;2023-09-08T07:02:47;11.10;;;7.90;;
58896;SDS011;44677;52.378;10.400;2023-09-08T07:05:15;12.30;;;8.00;;
58896;SDS011;44677;52.378;10.400;2023-09-08T07:07:41;14.20;;;7.60;;
58896;SDS011;44677;52.378;10.400;2023-09-08T07:10:07;9.10;;;7.70;;
58896;SDS011;44677;52.378;10.400;2023-09-08T07:14:59;8.80;;;6.80;;
58896;SDS011;44677;52.378;10.400;2023-09-08T07:17:25;10.30;;;7.30;;
58896;SDS011;44677;52.378;10.400;2023-09-08T07:19:51;10.10;;;6.80;;
58896;SDS011;44677;52.378;10.400;2023-09-08T07:22:17;10.70;;;7.50;;
58896;SDS011;44677;52.378;10.400;2023-09-08T07:24:43;9.90;;;7.90;;
58896;SDS011;44677;52.378;10.400;2023-09-08T07:29:35;11.90;;;7.30;;
58896;SDS011;44677;52.378;10.400;2023-09-08T07:32:00;8.20;;;7.00;;
58896;SDS011;44677;52.378;10.400;2023-09-08T07:34:26;11.70;;;7.30;;
58896;SDS011;44677;52.378;10.400;2023-09-08T07:36:51;9.80;;;6.90;;
58896;SDS011;44677;52.378;10.400;2023-09-08T07:39:17;8.80;;;6.40;;
58896;SDS011;44677;52.378;10.400;2023-09-08T07:41:43;14.10;;;6.80;;
58896;SDS011;44677;52.378;10.400;2023-09-08T07:44:08;11.30;;;7.10;;
58896;SDS011;44677;52.378;10.400;2023-09-08T07:46:34;10.30;;;6.90;;
58896;SDS011;44677;52.378;10.400;2023-09-08T07:48:59;10.60;;;6.80;;
58896;SDS011;44677;52.378;10.400;2023-09-08T07:51:25;9.70;;;6.40;;
58896;SDS011;44677;52.378;10.400;2023-09-08T07:53:52;16.70;;;7.10;;
58896;SDS011;44677;52.378;10.400;2023-09-08T07:56:18;8.90;;;6.60;;
58896;SDS011;44677;52.378;10.400;2023-09-08T07:58:44;14.50;;;6.60;;
58896;SDS011;44677;52.378;10.400;2023-09-08T08:01:09;9.80;;;6.00;;
58896;SDS011;44677;52.378;10.400;2023-09-08T08:03:35;8.60;;;6.40;;
58896;SDS011;44677;52.378;10.400;2023-09-08T08:06:01;11.60;;;6.40;;
58896;SDS011;44677;52.378;10.400;2023-09-08T08:08:27;9.80;;;6.40;;
58896;SDS011;44677;52.378;10.400;2023-09-08T08:10:52;10.20;;;6.30;;
58896;SDS011;44677;52.378;10.400;2023-09-08T08:13:18;10.90;;;6.60;;
58896;SDS011;44677;52.378;10.400;2023-09-08T08:15:43;11.50;;;6.00;;
58896;SDS011;44677;52.378;10.400;2023-09-08T08:18:12;10.00;;;6.50;;
58896;SDS011;44677;52.378;10.400;2023-09-08T08:20:38;10.70;;;6.30;;
58896;SDS011;44677;52.378;10.400;2023-09-08T08:23:04;7.50;;;5.50;;
58896;SDS011;44677;52.378;10.400;2023-09-08T08:25:30;11.70;;;6.00;;
58896;SDS011;44677;52.378;10.400;2023-09-08T08:27:56;9.10;;;6.10;;
58896;SDS011;44677;52.378;10.400;2023-09-08T08:30:23;10.40;;;6.10;;
58896;SDS011;44677;52.378;10.400;2023-09-08T08:35:16;7.00;;;6.20;;
58896;SDS011;44677;52.378;10.400;2023-09-08T08:37:42;8.40;;;5.50;;
58896;SDS011;44677;52.378;10.400;2023-09-08T08:40:11;7.60;;;4.80;;
58896;SDS011;44677;52.378;10.400;2023-09-08T08:42:38;12.10;;;6.10;;
58896;SDS011;44677;52.378;10.400;2023-09-08T08:45:04;6.20;;;5.20;;
58896;SDS011;44677;52.378;10.400;2023-09-08T08:47:30;6.10;;;5.10;;
58896;SDS011;44677;52.378;10.400;2023-09-08T08:49:56;6.30;;;4.90;;
58896;SDS011;44677;52.378;10.400;2023-09-08T08:52:24;7.50;;;4.80;;
58896;SDS011;44677;52.378;10.400;2023-09-08T08:54:50;5.20;;;4.40;;
58896;SDS011;44677;52.378;10.400;2023-09-08T08:57:16;7.20;;;4.70;;
58896;SDS011;44677;52.378;10.400;2023-09-08T08:59:41;6.10;;;4.80;;
58896;SDS011;44677;52.378;10.400;2023-09-08T09:02:07;7.10;;;4.40;;
58896;SDS011;44677;52.378;10.400;2023-09-08T09:04:34;7.60;;;4.70;;
58896;SDS011;44677;52.378;10.400;2023-09-08T09:07:01;5.20;;;4.70;;
58896;SDS011;44677;52.378;10.400;2023-09-08T09:11:53;5.00;;;4.40;;
58896;SDS011;44677;52.378;10.400;2023-09-08T09:14:19;4.80;;;4.40;;
58896;SDS011;44677;52.378;10.400;2023-09-08T09:16:44;5.20;;;4.10;;
58896;SDS011;44677;52.378;10.400;2023-09-08T09:19:20;7.10;;;4.70;;
58896;SDS011;44677;52.378;10.400;2023-09-08T09:21:51;6.30;;;4.50;;
58896;SDS011;44677;52.378;10.400;2023-09-08T09:27:11;6.90;;;4.40;;
58896;SDS011;44677;52.378;10.400;2023-09-08T09:32:13;5.30;;;3.80;;
58896;SDS011;44677;52.378;10.400;2023-09-08T09:34:48;5.60;;;3.80;;
58896;SDS011;44677;52.378;10.400;2023-09-08T09:37:16;6.20;;;4.50;;
58896;SDS011;44677;52.378;10.400;2023-09-08T09:39:41;4.20;;;3.80;;
58896;SDS011;44677;52.378;10.400;2023-09-08T09:42:07;5.90;;;4.20;;
58896;SDS011;44677;52.378;10.400;2023-09-08T09:44:32;6.80;;;4.10;;
58896;SDS011;44677;52.378;10.400;2023-09-08T09:46:58;5.10;;;3.70;;
58896;SDS011;44677;52.378;10.400;2023-09-08T09:49:25;5.70;;;4.00;;
58896;SDS011;44677;52.378;10.400;2023-09-08T09:51:57;7.80;;;4.00;;
58896;SDS011;44677;52.378;10.400;2023-09-08T09:54:23;5.80;;;4.10;;
58896;SDS011;44677;52.378;10.400;2023-09-08T09:56:48;5.20;;;3.80;;
58896;SDS011;44677;52.378;10.400;2023-09-08T09:59:16;5.80;;;3.60;;
58896;SDS011;44677;52.378;10.400;2023-09-08T10:01:42;3.80;;;3.50;;
58896;SDS011;44677;52.378;10.400;2023-09-08T10:04:08;4.20;;;3.80;;
58896;SDS011;44677;52.378;10.400;2023-09-08T10:06:34;6.90;;;4.00;;
58896;SDS011;44677;52.378;10.400;2023-09-08T10:09:01;4.30;;;3.70;;
58896;SDS011;44677;52.378;10.400;2023-09-08T10:11:34;4.30;;;3.40;;
58896;SDS011;44677;52.378;10.400;2023-09-08T10:14:01;4.60;;;3.70;;
58896;SDS011;44677;52.378;10.400;2023-09-08T10:16:27;5.10;;;3.60;;
58896;SDS011;44677;52.378;10.400;2023-09-08T10:18:59;5.80;;;3.30;;
58896;SDS011;44677;52.378;10.400;2023-09-08T10:21:26;3.50;;;3.20;;
58896;SDS011;44677;52.378;10.400;2023-09-08T10:26:51;4.40;;;3.60;;
58896;SDS011;44677;52.378;10.400;2023-09-08T10:29:25;5.80;;;3.50;;
58896;SDS011;44677;52.378;10.400;2023-09-08T10:31:52;4.50;;;3.60;;
58896;SDS011;44677;52.378;10.400;2023-09-08T10:34:18;3.90;;;3.60;;
58896;SDS011;44677;52.378;10.400;2023-09-08T10:36:44;4.60;;;3.20;;
58896;SDS011;44677;52.378;10.400;2023-09-08T10:44:42;4.30;;;3.80;;
58896;SDS011;44677;52.378;10.400;2023-09-08T10:47:13;6.30;;;3.60;;
58896;SDS011;44677;52.378;10.400;2023-09-08T10:49:39;5.10;;;3.40;;
58896;SDS011;44677;52.378;10.400;2023-09-08T10:52:07;4.60;;;3.70;;
58896;SDS011;44677;52.378;10.400;2023-09-08T10:54:43;7.20;;;3.90;;
58896;SDS011;44677;52.378;10.400;2023-09-08T10:59:38;5.80;;;3.60;;
58896;SDS011;44677;52.378;10.400;2023-09-08T11:02:04;5.50;;;3.30;;
58896;SDS011;44677;52.378;10.400;2023-09-08T11:04:29;4.60;;;3.90;;
58896;SDS011;44677;52.378;10.400;2023-09-08T11:06:58;5.20;;;3.20;;
58896;SDS011;44677;52.378;10.400;2023-09-08T11:09:23;5.00;;;3.80;;
58896;SDS011;44677;52.378;10.400;2023-09-08T11:11:49;5.20;;;3.80;;
58896;SDS011;44677;52.378;10.400;2023-09-08T11:14:15;4.40;;;3.80;;
58896;SDS011;44677;52.378;10.400;2023-09-08T11:16:41;5.90;;;3.70;;
58896;SDS011;44677;52.378;10.400;2023-09-08T11:19:07;3.80;;;3.50;;
58896;SDS011;44677;52.378;10.400;2023-09-08T11:21:35;4.60;;;3.60;;
58896;SDS011;44677;52.378;10.400;2023-09-08T11:24:04;5.90;;;3.70;;
58896;SDS011;44677;52.378;10.400;2023-09-08T11:26:34;4.80;;;3.70;;
58896;SDS011;44677;52.378;10.400;2023-09-08T11:28:59;5.90;;;3.40;;
58896;SDS011;44677;52.378;10.400;2023-09-08T11:31:25;4.90;;;3.40;;
58896;SDS011;44677;52.378;10.400;2023-09-08T11:33:54;4.60;;;3.90;;
58896;SDS011;44677;52.378;10.400;2023-09-08T11:36:20;6.00;;;3.30;;
58896;SDS011;44677;52.378;10.400;2023-09-08T11:38:45;5.60;;;3.30;;
58896;SDS011;44677;52.378;10.400;2023-09-08T11:41:11;7.90;;;3.90;;
58896;SDS011;44677;52.378;10.400;2023-09-08T11:43:36;5.00;;;3.50;;
58896;SDS011;44677;52.378;10.400;2023-09-08T11:46:02;5.60;;;3.70;;
58896;SDS011;44677;52.378;10.400;2023-09-08T11:50:53;3.90;;;3.40;;
58896;SDS011;44677;52.378;10.400;2023-09-08T11:55:46;3.80;;;3.10;;
58896;SDS011;44677;52.378;10.400;2023-09-08T11:58:11;5.10;;;3.50;;
58896;SDS011;44677;52.378;10.400;2023-09-08T12:03:10;4.60;;;3.60;;
58896;SDS011;44677;52.378;10.400;2023-09-08T12:05:51;4.20;;;3.50;;
58896;SDS011;44677;52.378;10.400;2023-09-08T12:08:17;4.30;;;3.20;;
58896;SDS011;44677;52.378;10.400;2023-09-08T12:10:42;5.00;;;3.70;;
58896;SDS011;44677;52.378;10.400;2023-09-08T12:18:00;5.70;;;3.30;;
58896;SDS011;44677;52.378;10.400;2023-09-08T12:20:27;3.50;;;2.90;;
58896;SDS011;44677;52.378;10.400;2023-09-08T12:22:53;3.40;;;3.10;;
58896;SDS011;44677;52.378;10.400;2023-09-08T12:25:18;3.40;;;3.10;;
58896;SDS011;44677;52.378;10.400;2023-09-08T12:27:45;4.80;;;3.30;;
58896;SDS011;44677;52.378;10.400;2023-09-08T12:30:18;5.20;;;3.10;;
58896;SDS011;44677;52.378;10.400;2023-09-08T12:32:45;4.00;;;2.90;;
58896;SDS011;44677;52.378;10.400;2023-09-08T12:35:13;4.30;;;3.30;;
58896;SDS011;44677;52.378;10.400;2023-09-08T12:37:38;3.50;;;3.00;;
58896;SDS011;44677;52.378;10.400;2023-09-08T12:40:04;3.30;;;2.90;;
58896;SDS011;44677;52.378;10.400;2023-09-08T12:42:30;3.10;;;2.90;;
58896;SDS011;44677;52.378;10.400;2023-09-08T12:44:55;4.10;;;2.90;;
58896;SDS011;44677;52.378;10.400;2023-09-08T12:47:21;3.00;;;2.70;;
58896;SDS011;44677;52.378;10.400;2023-09-08T12:49:46;4.70;;;3.10;;
58896;SDS011;44677;52.378;10.400;2023-09-08T12:52:12;5.10;;;2.80;;
58896;SDS011;44677;52.378;10.400;2023-09-08T12:54:37;4.00;;;3.10;;
58896;SDS011;44677;52.378;10.400;2023-09-08T12:57:03;3.80;;;3.30;;
58896;SDS011;44677;52.378;10.400;2023-09-08T12:59:28;4.10;;;2.90;;
58896;SDS011;44677;52.378;10.400;2023-09-08T13:01:54;3.40;;;3.10;;
58896;SDS011;44677;52.378;10.400;2023-09-08T13:04:20;3.20;;;2.80;;
58896;SDS011;44677;52.378;10.400;2023-09-08T13:06:47;3.80;;;2.80;;
58896;SDS011;44677;52.378;10.400;2023-09-08T13:11:38;3.80;;;2.90;;
58896;SDS011;44677;52.378;10.400;2023-09-08T13:14:03;6.40;;;3.00;;
58896;SDS011;44677;52.378;10.400;2023-09-08T13:16:29;2.90;;;2.70;;
58896;SDS011;44677;52.378;10.400;2023-09-08T13:18:54;5.50;;;2.70;;
58896;SDS011;44677;52.378;10.400;2023-09-08T13:23:45;4.60;;;3.20;;
58896;SDS011;44677;52.378;10.400;2023-09-08T13:26:11;6.60;;;3.20;;
58896;SDS011;44677;52.378;10.400;2023-09-08T13:28:39;3.30;;;3.10;;
58896;SDS011;44677;52.378;10.400;2023-09-08T13:31:04;3.20;;;3.00;;
58896;SDS011;44677;52.378;10.400;2023-09-08T13:33:30;3.80;;;2.90;;
58896;SDS011;44677;52.378;10.400;2023-09-08T13:35:55;6.70;;;3.30;;
58896;SDS011;44677;52.378;10.400;2023-09-08T13:40:46;7.30;;;3.20;;
58896;SDS011;44677;52.378;10.400;2023-09-08T13:43:12;2.90;;;2.70;;
58896;SDS011;44677;52.378;10.400;2023-09-08T13:45:37;3.90;;;3.20;;
58896;SDS011;44677;52.378;10.400;2023-09-08T13:48:02;3.00;;;2.70;;
58896;SDS011;44677;52.378;10.400;2023-09-08T13:50:31;3.00;;;2.70;;
58896;SDS011;44677;52.378;10.400;2023-09-08T13:52:56;3.80;;;2.90;;
58896;SDS011;44677;52.378;10.400;2023-09-08T13:55:22;4.00;;;3.00;;
58896;SDS011;44677;52.378;10.400;2023-09-08T13:57:49;3.30;;;3.00;;
58896;SDS011;44677;52.378;10.400;2023-09-08T14:00:15;3.30;;;2.90;;
58896;SDS011;44677;52.378;10.400;2023-09-08T14:02:41;5.50;;;3.10;;
58896;SDS011;44677;52.378;10.400;2023-09-08T14:05:07;3.50;;;2.90;;
58896;SDS011;44677;52.378;10.400;2023-09-08T14:07:32;3.20;;;2.80;;
58896;SDS011;44677;52.378;10.400;2023-09-08T14:09:58;4.00;;;2.90;;
58896;SDS011;44677;52.378;10.400;2023-09-08T14:12:24;4.40;;;3.20;;
58896;SDS011;44677;52.378;10.400;2023-09-08T14:14:49;4.80;;;3.00;;
58896;SDS011;44677;52.378;10.400;2023-09-08T14:17:14;5.60;;;3.30;;
58896;SDS011;44677;52.378;10.400;2023-09-08T14:19:40;5.30;;;3.10;;
58896;SDS011;44677;52.378;10.400;2023-09-08T14:22:05;4.70;;;3.20;;
58896;SDS011;44677;52.378;10.400;2023-09-08T14:24:30;5.10;;;3.00;;
58896;SDS011;44677;52.378;10.400;2023-09-08T14:26:56;7.20;;;3.30;;
58896;SDS011;44677;52.378;10.400;2023-09-08T14:29:21;3.30;;;2.90;;
58896;SDS011;44677;52.378;10.400;2023-09-08T14:31:48;4.60;;;3.20;;
58896;SDS011;44677;52.378;10.400;2023-09-08T14:36:40;5.10;;;3.30;;
58896;SDS011;44677;52.378;10.400;2023-09-08T14:41:31;5.10;;;3.40;;
58896;SDS011;44677;52.378;10.400;2023-09-08T14:43:56;3.90;;;3.20;;
58896;SDS011;44677;52.378;10.400;2023-09-08T14:46:21;3.50;;;3.20;;
58896;SDS011;44677;52.378;10.400;2023-09-08T14:48:47;4.90;;;3.20;;
58896;SDS011;44677;52.378;10.400;2023-09-08T14:51:12;4.10;;;3.40;;
58896;SDS011;44677;52.378;10.400;2023-09-08T14:53:38;4.40;;;3.20;;
58896;SDS011;44677;52.378;10.400;2023-09-08T14:56:03;6.10;;;3.10;;
58896;SDS011;44677;52.378;10.400;2023-09-08T14:58:30;4.70;;;3.30;;
58896;SDS011;44677;52.378;10.400;2023-09-08T15:00:59;11.50;;;3.50;;
58896;SDS011;44677;52.378;10.400;2023-09-08T15:03:29;3.80;;;3.00;;
58896;SDS011;44677;52.378;10.400;2023-09-08T15:05:56;6.10;;;3.20;;
58896;SDS011;44677;52.378;10.400;2023-09-08T15:08:21;3.70;;;3.30;;
58896;SDS011;44677;52.378;10.400;2023-09-08T15:13:12;4.10;;;3.10;;
58896;SDS011;44677;52.378;10.400;2023-09-08T15:15:38;4.50;;;3.50;;
58896;SDS011;44677;52.378;10.400;2023-09-08T15:18:03;3.50;;;3.10;;
58896;SDS011;44677;52.378;10.400;2023-09-08T15:20:29;3.90;;;3.30;;
58896;SDS011;44677;52.378;10.400;2023-09-08T15:22:54;4.10;;;3.40;;
58896;SDS011;44677;52.378;10.400;2023-09-08T15:25:19;3.30;;;2.80;;
58896;SDS011;44677;52.378;10.400;2023-09-08T15:27:45;5.20;;;3.10;;